Time;durP1;ratioP1;P1;durP2;ratioP2;P2;SDS_P1;SDS_P2;PMS_P1;PMS_P2;Temp;Humidity;BMP_temperature;BMP_pressure;BME280_temperature;BME280_humidity;BME280_pressure;Samples;Min_cycle;Max_cycle;Signal;HPM_P1;HPM_P2
2021/12/03 00:04:19;;;;;;;7.57;6.87;;;5.60;42.80;;;;;;10359477;28;20234;-68
2021/12/03 00:09:24;;;;;;;7.97;7.17;;;5.60;43.00;;;;;;10361365;28;20723;-69
2021/12/03 00:14:27;;;;;;;7.03;6.43;;;5.60;43.00;;;;;;10360808;28;20238;-68
2021/12/03 00:19:31;;;;;;;8.10;7.40;;;5.60;42.90;;;;;;10358674;28;20238;-69
2021/12/03 00:24:38;;;;;;;8.00;7.30;;;5.60;42.70;;;;;;10361743;28;20237;-69
2021/12/03 00:29:41;;;;;;;7.77;7.07;;;5.60;42.80;;;;;;10360441;28;20245;-68
2021/12/03 00:34:44;;;;;;;7.60;6.83;;;5.60;42.90;;;;;;10358937;28;20246;-69
2021/12/03 00:39:49;;;;;;;6.60;5.90;;;5.60;42.70;;;;;;10352867;28;20246;-69
2021/12/03 00:44:55;;;;;;;7.77;6.97;;;5.50;42.80;;;;;;10354805;28;20242;-69
2021/12/03 00:49:58;;;;;;;8.20;7.07;;;5.50;42.80;;;;;;10361695;28;20238;-67
2021/12/03 00:55:04;;;;;;;7.63;6.90;;;5.50;42.80;;;;;;10363782;28;20618;-67
2021/12/03 01:00:11;;;;;;;8.07;7.30;;;5.50;43.10;;;;;;10356354;28;20226;-68
2021/12/03 01:05:14;;;;;;;7.97;7.20;;;5.60;43.00;;;;;;10357820;28;20226;-68
2021/12/03 01:10:19;;;;;;;7.80;6.70;;;5.60;43.00;;;;;;10357173;28;20724;-68
2021/12/03 01:15:26;;;;;;;8.03;7.30;;;5.60;43.20;;;;;;10359185;28;20348;-68
2021/12/03 01:20:30;;;;;;;8.33;7.40;;;5.60;43.20;;;;;;10359124;28;20226;-68
2021/12/03 01:25:35;;;;;;;8.50;7.57;;;5.60;43.20;;;;;;10356974;28;20246;-68
2021/12/03 01:30:39;;;;;;;8.90;7.90;;;5.60;43.10;;;;;;10359130;28;20256;-67
2021/12/03 01:35:42;;;;;;;8.80;7.93;;;5.60;43.10;;;;;;10360364;28;20680;-70
2021/12/03 01:40:47;;;;;;;8.20;7.40;;;5.50;43.10;;;;;;10362047;28;20320;-68
2021/12/03 01:45:53;;;;;;;8.30;7.50;;;5.50;43.10;;;;;;10361492;28;20642;-68
2021/12/03 01:50:57;;;;;;;8.57;7.67;;;5.50;43.10;;;;;;10360053;28;20236;-68
2021/12/03 01:56:05;;;;;;;7.70;6.90;;;5.40;43.10;;;;;;10360226;28;20230;-68
2021/12/03 02:01:11;;;;;;;8.40;7.53;;;5.40;43.10;;;;;;10358858;28;20229;-68
2021/12/03 02:06:16;;;;;;;7.97;7.17;;;5.40;43.10;;;;;;10359465;28;20234;-69
2021/12/03 02:11:21;;;;;;;8.27;7.47;;;5.40;43.10;;;;;;10360086;28;20236;-69
2021/12/03 02:16:26;;;;;;;8.30;7.50;;;5.30;43.00;;;;;;10366250;28;20494;-69
2021/12/03 02:21:31;;;;;;;7.93;7.23;;;5.20;42.90;;;;;;10364708;28;20238;-69
2021/12/03 02:26:34;;;;;;;8.20;7.20;;;5.20;42.90;;;;;;10367395;28;20244;-69
2021/12/03 02:31:37;;;;;;;7.83;6.97;;;5.20;42.90;;;;;;10361925;28;20234;-69
2021/12/03 02:36:42;;;;;;;8.30;7.47;;;5.20;43.10;;;;;;10367124;28;20318;-69
2021/12/03 02:41:45;;;;;;;7.83;7.13;;;5.10;43.10;;;;;;10361851;28;20584;-69
2021/12/03 02:46:48;;;;;;;7.50;6.67;;;5.10;43.20;;;;;;10365170;28;20226;-68
2021/12/03 02:51:53;;;;;;;6.43;5.83;;;5.10;43.30;;;;;;10362374;28;20337;-69
2021/12/03 02:56:56;;;;;;;7.37;6.67;;;5.10;43.30;;;;;;10362753;28;20222;-69
2021/12/03 03:02:00;;;;;;;7.77;6.97;;;5.10;43.20;;;;;;10363485;28;20241;-69
2021/12/03 03:07:24;;;;;;;8.03;7.23;;;5.10;43.30;;;;;;10362889;28;20238;-69
2021/12/03 03:12:27;;;;;;;7.60;6.90;;;5.10;43.40;;;;;;10363652;28;20246;-69
2021/12/03 03:17:31;;;;;;;7.70;7.00;;;5.10;43.50;;;;;;10362663;28;20349;-70
2021/12/03 03:22:37;;;;;;;8.03;7.33;;;5.10;43.50;;;;;;10363838;28;20359;-70
2021/12/03 03:27:40;;;;;;;7.73;7.03;;;5.10;43.70;;;;;;10361561;28;20727;-69
2021/12/03 03:32:45;;;;;;;7.63;6.80;;;5.10;43.50;;;;;;10361303;28;20230;-70
2021/12/03 03:37:49;;;;;;;7.20;6.50;;;5.10;43.50;;;;;;10362643;28;20621;-70
2021/12/03 03:42:52;;;;;;;6.53;6.00;;;5.20;43.40;;;;;;10362036;28;20235;-70
2021/12/03 03:47:56;;;;;;;8.07;7.27;;;5.20;43.20;;;;;;10363076;28;20237;-70
2021/12/03 03:53:01;;;;;;;7.03;6.43;;;5.20;43.20;;;;;;10360683;28;20603;-69
2021/12/03 03:58:05;;;;;;;5.83;5.33;;;5.10;43.30;;;;;;10362062;28;20237;-69
2021/12/03 04:03:09;;;;;;;6.00;5.50;;;5.10;43.10;;;;;;10358529;28;20238;-69
2021/12/03 04:08:14;;;;;;;6.00;5.50;;;5.00;43.10;;;;;;10364223;28;20225;-69
2021/12/03 04:13:17;;;;;;;6.07;5.60;;;5.00;43.30;;;;;;10361588;28;20230;-69
2021/12/03 04:18:21;;;;;;;7.97;7.17;;;5.00;43.30;;;;;;10359855;28;20230;-69
2021/12/03 04:23:27;;;;;;;8.00;7.30;;;5.10;43.50;;;;;;10362058;28;20723;-69
2021/12/03 04:28:30;;;;;;;8.97;8.17;;;5.00;43.60;;;;;;10360491;28;20256;-69
2021/12/03 04:33:33;;;;;;;8.73;7.97;;;5.00;43.50;;;;;;10359004;28;20238;-70
2021/12/03 04:38:38;;;;;;;7.87;7.17;;;5.00;43.40;;;;;;10360371;28;20245;-70
2021/12/03 04:43:41;;;;;;;7.07;6.47;;;5.00;43.50;;;;;;10361128;28;20238;-69
2021/12/03 04:48:45;;;;;;;6.90;6.30;;;5.00;43.30;;;;;;10359844;28;20231;-70
2021/12/03 04:53:49;;;;;;;7.27;6.67;;;5.00;43.40;;;;;;10359409;28;20241;-70
2021/12/03 04:58:52;;;;;;;6.60;6.10;;;5.00;43.40;;;;;;10359267;28;20260;-68
2021/12/03 05:03:55;;;;;;;7.33;6.63;;;5.00;43.30;;;;;;10354673;28;20246;-68
2021/12/03 05:09:00;;;;;;;7.07;6.47;;;5.00;43.40;;;;;;10358532;28;20234;-68
2021/12/03 05:14:03;;;;;;;6.70;6.10;;;5.00;43.40;;;;;;10358346;28;21080;-68
2021/12/03 05:19:06;;;;;;;6.80;6.20;;;5.00;43.30;;;;;;10360697;28;20237;-68
2021/12/03 05:24:11;;;;;;;6.93;6.23;;;5.00;43.20;;;;;;10358920;28;20588;-68
2021/12/03 05:29:15;;;;;;;6.50;5.73;;;5.00;43.20;;;;;;10355413;28;20230;-68
2021/12/03 05:34:18;;;;;;;6.63;6.03;;;4.90;43.20;;;;;;10360759;28;20238;-68
2021/12/03 05:39:23;;;;;;;8.03;7.10;;;4.90;43.20;;;;;;10355477;28;20245;-67
2021/12/03 05:44:28;;;;;;;6.97;6.37;;;4.90;43.30;;;;;;10357168;28;20236;-68
2021/12/03 05:49:31;;;;;;;6.23;5.73;;;4.90;43.20;;;;;;10358549;28;20834;-67
2021/12/03 05:54:36;;;;;;;6.87;6.27;;;5.00;43.40;;;;;;10365903;28;20254;-68
2021/12/03 05:59:39;;;;;;;7.00;6.40;;;5.00;43.30;;;;;;10362864;28;20235;-70
2021/12/03 06:04:42;;;;;;;6.17;5.63;;;5.00;43.10;;;;;;10365020;28;20254;-67
2021/12/03 06:09:47;;;;;;;6.40;5.80;;;5.00;43.10;;;;;;10364342;28;20241;-69
2021/12/03 06:14:50;;;;;;;6.67;6.17;;;5.00;43.50;;;;;;10364297;28;20238;-67
2021/12/03 06:19:53;;;;;;;6.63;6.03;;;5.10;43.60;;;;;;10360905;28;20227;-70
2021/12/03 06:24:58;;;;;;;6.80;6.20;;;5.10;43.10;;;;;;10362774;28;20269;-70
2021/12/03 06:30:03;;;;;;;7.40;6.43;;;5.10;42.80;;;;;;10364420;28;20221;-70
2021/12/03 06:35:08;;;;;;;7.73;6.93;;;5.10;42.80;;;;;;10362772;28;20313;-70
2021/12/03 06:40:16;;;;;;;7.13;6.53;;;5.00;43.10;;;;;;10364814;28;20296;-67
2021/12/03 06:45:19;;;;;;;7.57;6.87;;;5.00;43.10;;;;;;10363097;28;20230;-67
2021/12/03 06:50:24;;;;;;;6.63;6.13;;;5.00;43.10;;;;;;10363748;28;20727;-67
2021/12/03 06:55:36;;;;;;;7.80;7.13;;;5.00;43.10;;;;;;10362423;28;20242;-70
2021/12/03 07:00:39;;;;;;;8.47;7.67;;;5.00;43.20;;;;;;10361252;28;20238;-69
2021/12/03 07:05:43;;;;;;;7.43;6.73;;;5.00;43.10;;;;;;10363665;28;20234;-70
2021/12/03 07:10:47;;;;;;;8.13;7.50;;;5.10;43.10;;;;;;10362440;28;20616;-70
2021/12/03 07:15:50;;;;;;;9.90;9.00;;;5.00;43.00;;;;;;10365070;28;20754;-70
2021/12/03 07:20:53;;;;;;;8.00;7.30;;;5.00;42.80;;;;;;10362902;28;20246;-67
2021/12/03 07:26:00;;;;;;;8.20;7.50;;;5.00;43.10;;;;;;10362087;28;20256;-71
2021/12/03 07:31:04;;;;;;;8.57;7.83;;;4.90;43.10;;;;;;10362907;28;20237;-68
2021/12/03 07:36:07;;;;;;;8.07;7.37;;;4.90;43.20;;;;;;10362178;28;20325;-71
2021/12/03 07:41:12;;;;;;;8.57;7.77;;;4.90;43.10;;;;;;10361597;28;20596;-70
2021/12/03 07:46:16;;;;;;;9.10;8.13;;;4.90;43.00;;;;;;10358057;28;20245;-70
2021/12/03 07:51:19;;;;;;;8.30;7.60;;;4.90;43.30;;;;;;10360873;28;20226;-70
2021/12/03 07:56:23;;;;;;;10.43;9.00;;;4.90;43.30;;;;;;10361239;28;20615;-71
2021/12/03 08:01:27;;;;;;;9.93;9.03;;;5.00;43.50;;;;;;10358802;28;20234;-70
2021/12/03 08:06:31;;;;;;;9.67;8.77;;;5.00;43.60;;;;;;10361696;28;20529;-70
2021/12/03 08:11:37;;;;;;;9.07;8.17;;;5.00;43.40;;;;;;10359449;28;20271;-70
2021/12/03 08:16:40;;;;;;;8.30;7.50;;;5.10;43.40;;;;;;10361411;28;20691;-70
2021/12/03 08:21:43;;;;;;;7.60;7.00;;;5.10;43.30;;;;;;10361406;28;20246;-67
2021/12/03 08:26:48;;;;;;;8.13;7.43;;;5.10;43.30;;;;;;10359068;28;20229;-68
2021/12/03 08:31:51;;;;;;;8.90;8.10;;;5.20;43.30;;;;;;10361760;28;20535;-70
2021/12/03 08:36:54;;;;;;;8.23;7.43;;;5.20;43.40;;;;;;10358864;28;20253;-68
2021/12/03 08:42:05;;;;;;;7.93;7.27;;;5.40;43.60;;;;;;10358618;28;20234;-69
2021/12/03 08:47:08;;;;;;;8.10;7.40;;;5.50;43.40;;;;;;10356039;28;20226;-68
2021/12/03 08:52:28;;;;;;;8.73;7.83;;;5.60;43.30;;;;;;10358833;28;20466;-68
2021/12/03 08:57:35;;;;;;;8.77;7.97;;;5.70;43.30;;;;;;10359440;28;20233;-68
2021/12/03 09:02:38;;;;;;;9.10;8.30;;;5.80;43.30;;;;;;10354067;28;20349;-68
2021/12/03 09:07:41;;;;;;;8.00;7.40;;;5.90;43.10;;;;;;10346902;28;20226;-68
2021/12/03 09:12:53;;;;;;;8.17;7.47;;;5.90;42.90;;;;;;10350444;28;20245;-68
2021/12/03 09:18:15;;;;;;;7.50;6.90;;;5.90;42.50;;;;;;10349808;28;20707;-68
2021/12/03 09:23:24;;;;;;;7.07;6.50;;;6.00;42.70;;;;;;10359704;28;20233;-68
2021/12/03 09:28:30;;;;;;;7.67;6.97;;;6.00;42.70;;;;;;10366904;28;20608;-68
2021/12/03 09:33:35;;;;;;;8.23;7.50;;;6.00;42.30;;;;;;10364524;28;20250;-68
2021/12/03 09:38:39;;;;;;;7.40;6.70;;;6.00;42.00;;;;;;10364702;28;20226;-68
2021/12/03 09:43:46;;;;;;;8.10;7.27;;;5.90;41.90;;;;;;10364621;28;20244;-68
2021/12/03 09:49:08;;;;;;;7.50;6.80;;;5.90;41.90;;;;;;10365960;28;20601;-70
2021/12/03 09:54:22;;;;;;;9.07;8.27;;;5.90;41.90;;;;;;10364916;28;20241;-70
2021/12/03 10:16:04;;;;;;;7.07;6.47;;;6.00;42.10;;;;;;10341362;28;20757;-71
2021/12/03 10:21:16;;;;;;;7.60;6.77;;;6.10;42.10;;;;;;10358762;28;20913;-71
2021/12/03 10:37:40;;;;;;;6.93;6.30;;;6.60;42.30;;;;;;10178131;29;20229;-71
2021/12/03 10:42:57;;;;;;;6.73;6.20;;;6.60;41.70;;;;;;10330636;28;20325;-71
2021/12/03 10:48:16;;;;;;;6.47;5.87;;;6.70;41.40;;;;;;10365117;28;20241;-71
2021/12/03 10:53:37;;;;;;;6.87;6.27;;;6.70;41.20;;;;;;10359648;28;20265;-71
2021/12/03 11:05:04;;;;;;;7.10;6.47;;;6.70;40.30;;;;;;10363213;28;20222;-71
2021/12/03 14:10:04;;;;;;;3.90;3.50;;;6.50;38.00;;;;;;10362166;28;20265;-71
2021/12/03 14:43:02;;;;;;;4.37;3.97;;;6.10;38.30;;;;;;10365031;28;20230;-71
2021/12/03 14:59:13;;;;;;;6.27;5.30;;;6.20;39.10;;;;;;10357796;28;20226;-72
2021/12/03 15:04:41;;;;;;;4.43;4.03;;;6.30;38.20;;;;;;10361049;28;20597;-71
2021/12/03 15:09:47;;;;;;;4.40;4.00;;;6.20;38.60;;;;;;10363437;28;20222;-72
2021/12/03 15:20:47;;;;;;;4.03;3.73;;;6.10;38.80;;;;;;10195477;29;20603;-68
2021/12/03 15:25:57;;;;;;;4.73;4.33;;;6.10;38.80;;;;;;10331240;28;20234;-72
2021/12/03 15:31:05;;;;;;;4.93;4.53;;;6.00;38.40;;;;;;10361214;28;20230;-71
2021/12/03 15:36:12;;;;;;;6.70;5.67;;;6.00;38.60;;;;;;10360105;28;20229;-74
2021/12/03 16:08:21;;;;;;;9.97;8.97;;;6.90;42.00;;;;;;10359779;28;20221;-69
2021/12/03 16:13:36;;;;;;;8.67;7.87;;;7.20;40.60;;;;;;10361244;28;20542;-68
2021/12/03 16:24:18;;;;;;;8.00;7.13;;;7.20;38.60;;;;;;10356012;28;20234;-70
2021/12/03 16:46:08;;;;;;;6.50;5.90;;;6.40;38.50;;;;;;10322536;28;20248;-68
2021/12/03 16:51:24;;;;;;;7.57;6.87;;;6.10;38.50;;;;;;10358985;28;20245;-69
2021/12/03 16:56:28;;;;;;;8.60;7.60;;;6.00;38.80;;;;;;10356169;28;20226;-69
2021/12/03 17:01:39;;;;;;;8.80;8.00;;;5.80;38.90;;;;;;10358448;28;20238;-69
2021/12/03 17:12:25;;;;;;;10.30;7.73;;;5.70;39.00;;;;;;10357634;28;20230;-70
2021/12/03 17:44:57;;;;;;;9.43;8.53;;;5.20;39.40;;;;;;10362824;28;20731;-71
2021/12/03 17:50:11;;;;;;;136.50;119.93;;;5.10;39.30;;;;;;10364621;28;20237;-70
2021/12/03 17:55:26;;;;;;;75.33;67.57;;;5.10;39.40;;;;;;10366314;28;20236;-69
2021/12/03 18:00:37;;;;;;;26.33;23.63;;;5.00;39.50;;;;;;10365800;28;20234;-70
2021/12/03 18:06:02;;;;;;;16.20;14.60;;;5.00;39.60;;;;;;10363106;28;20230;-70
2021/12/03 18:11:35;;;;;;;11.77;10.57;;;4.90;39.60;;;;;;10368419;28;20229;-70
2021/12/03 18:49:21;;;;;;;9.20;7.87;;;4.60;39.80;;;;;;10361193;28;20221;-70
2021/12/03 18:54:34;;;;;;;8.93;8.03;;;4.70;39.90;;;;;;10354358;28;20230;-70
2021/12/03 18:59:41;;;;;;;9.03;8.13;;;4.50;39.80;;;;;;10356617;28;20227;-67
2021/12/03 19:04:50;;;;;;;8.80;8.00;;;4.60;40.00;;;;;;10354632;28;20242;-68
2021/12/03 19:09:58;;;;;;;8.47;7.57;;;4.50;39.80;;;;;;10357448;28;20257;-70
2021/12/03 19:15:02;;;;;;;8.43;7.63;;;4.60;39.80;;;;;;10352081;28;20227;-69
2021/12/03 19:20:10;;;;;;;7.97;7.17;;;4.60;39.90;;;;;;10361974;28;20222;-70
2021/12/03 19:25:14;;;;;;;8.17;7.43;;;4.50;39.80;;;;;;10361183;28;20608;-71
2021/12/03 19:30:18;;;;;;;8.60;7.70;;;4.50;39.80;;;;;;10363222;28;20629;-69
2021/12/03 19:35:21;;;;;;;8.03;7.27;;;4.40;39.80;;;;;;10360840;28;20230;-69
2021/12/03 19:40:30;;;;;;;11.10;9.87;;;4.40;39.90;;;;;;10363148;28;20231;-70
2021/12/03 19:45:37;;;;;;;9.23;8.10;;;4.30;39.90;;;;;;10360214;28;20238;-69
2021/12/03 19:50:42;;;;;;;8.53;7.73;;;4.30;39.90;;;;;;10362855;28;20598;-70
2021/12/03 19:55:47;;;;;;;8.57;7.67;;;4.50;40.10;;;;;;10361180;28;20245;-69
2021/12/03 20:00:51;;;;;;;8.17;7.37;;;4.30;39.80;;;;;;10361744;28;20223;-69
2021/12/03 20:05:54;;;;;;;7.80;7.00;;;4.30;39.80;;;;;;10358455;28;20616;-69
2021/12/03 20:11:02;;;;;;;11.80;10.70;;;4.30;39.90;;;;;;10351877;28;20238;-69
2021/12/03 20:16:15;;;;;;;10.00;9.07;;;4.30;39.80;;;;;;10350088;28;20249;-69
2021/12/03 20:21:21;;;;;;;10.13;9.13;;;4.30;39.50;;;;;;10349991;28;20230;-69
2021/12/03 20:26:33;;;;;;;11.33;10.23;;;4.30;39.60;;;;;;10349133;28;20226;-69
2021/12/03 20:31:40;;;;;;;9.07;8.27;;;4.20;39.50;;;;;;10350276;28;20955;-69
2021/12/03 20:36:49;;;;;;;9.67;8.77;;;4.20;39.40;;;;;;10347581;28;20230;-67
2021/12/03 20:42:00;;;;;;;8.73;7.83;;;4.10;39.60;;;;;;10348026;28;20249;-67
2021/12/03 20:52:40;;;;;;;10.97;9.97;;;4.20;39.70;;;;;;10345423;28;20225;-67
2021/12/03 20:58:11;;;;;;;10.30;9.17;;;4.20;39.60;;;;;;10345196;28;20242;-67
2021/12/03 21:08:39;;;;;;;8.53;7.73;;;4.20;39.60;;;;;;10319850;28;20241;-70
2021/12/03 21:13:46;;;;;;;10.03;7.43;;;4.20;39.60;;;;;;10345138;28;20239;-70
2021/12/03 21:19:03;;;;;;;7.60;5.93;;;4.20;39.40;;;;;;10355355;28;20222;-70
2021/12/03 21:24:08;;;;;;;6.50;5.90;;;4.20;39.30;;;;;;10360115;28;20735;-70
2021/12/03 21:29:21;;;;;;;7.73;6.83;;;4.20;39.20;;;;;;10360823;28;20935;-70
2021/12/03 21:40:08;;;;;;;5.97;5.37;;;4.10;39.30;;;;;;10363883;28;20244;-70
2021/12/03 21:45:13;;;;;;;5.47;4.97;;;4.00;39.20;;;;;;10361323;28;20228;-70
2021/12/03 21:50:16;;;;;;;6.33;5.73;;;3.90;39.40;;;;;;10359875;28;20230;-70
2021/12/03 21:55:22;;;;;;;6.07;5.47;;;3.80;39.40;;;;;;10360858;28;21027;-68
2021/12/03 22:00:27;;;;;;;6.53;5.93;;;3.80;39.40;;;;;;10359142;28;20238;-69
2021/12/03 22:05:31;;;;;;;6.03;5.43;;;3.70;39.50;;;;;;10360027;28;20735;-69
2021/12/03 22:10:34;;;;;;;6.67;6.00;;;3.70;39.60;;;;;;10356325;28;20320;-69
2021/12/03 22:15:38;;;;;;;6.30;5.70;;;3.60;39.60;;;;;;10357230;28;20234;-69
2021/12/03 22:20:41;;;;;;;6.17;5.57;;;3.60;39.80;;;;;;10359522;28;20647;-71
2021/12/03 22:25:45;;;;;;;6.10;5.40;;;3.60;39.90;;;;;;10355432;28;20600;-70
2021/12/03 22:30:51;;;;;;;5.53;5.03;;;3.60;39.80;;;;;;10355232;28;20238;-70
2021/12/03 22:35:55;;;;;;;5.47;4.97;;;3.60;40.00;;;;;;10357861;28;20245;-70
2021/12/03 22:40:58;;;;;;;4.80;4.40;;;3.60;40.00;;;;;;10355976;28;20607;-70
2021/12/03 22:46:14;;;;;;;5.47;4.97;;;3.60;39.90;;;;;;10353689;28;20242;-69
2021/12/03 22:51:43;;;;;;;4.60;4.20;;;3.90;40.10;;;;;;10357363;28;20234;-69
2021/12/03 22:56:51;;;;;;;4.87;4.33;;;3.70;39.90;;;;;;10355779;28;20233;-69
2021/12/03 23:01:56;;;;;;;4.30;3.90;;;3.70;39.80;;;;;;10356975;28;20241;-69
2021/12/03 23:06:59;;;;;;;4.27;3.87;;;3.70;39.90;;;;;;10355904;28;20237;-70
2021/12/03 23:12:03;;;;;;;5.87;4.33;;;3.80;39.90;;;;;;10357226;28;20253;-69
2021/12/03 23:17:08;;;;;;;4.93;4.50;;;3.80;39.80;;;;;;10353705;28;20234;-69
2021/12/03 23:22:11;;;;;;;4.83;4.33;;;3.80;39.70;;;;;;10355323;28;20241;-69
2021/12/03 23:27:15;;;;;;;4.53;4.10;;;3.90;39.90;;;;;;10356790;28;20234;-69
2021/12/03 23:32:21;;;;;;;4.10;3.73;;;3.80;39.60;;;;;;10360151;28;20613;-69
2021/12/03 23:37:25;;;;;;;4.60;4.20;;;3.80;39.80;;;;;;10357264;28;20236;-69
2021/12/03 23:42:28;;;;;;;4.67;3.97;;;3.80;39.80;;;;;;10359555;28;20234;-69
2021/12/03 23:47:32;;;;;;;4.63;4.23;;;3.80;40.00;;;;;;10360786;28;20241;-69
2021/12/03 23:52:36;;;;;;;4.23;3.90;;;3.80;40.00;;;;;;10359274;28;20541;-69
2021/12/03 23:57:39;;;;;;;4.43;4.03;;;3.80;40.10;;;;;;10357905;28;20235;-69
